createdAt,value
2018-10-21T00:01:01.864Z,4.07
2018-10-21T00:02:08.095Z,4.07
2018-10-21T00:03:14.275Z,4.07
2018-10-21T00:04:20.429Z,4.07
2018-10-21T00:05:27.611Z,4.07
2018-10-21T00:06:32.814Z,4.07
2018-10-21T00:07:39.005Z,4.07
2018-10-21T00:08:45.526Z,4.07
2018-10-21T00:09:51.373Z,4.07
2018-10-21T00:10:57.566Z,4.07
2018-10-21T00:12:03.765Z,4.07
2018-10-21T00:13:09.942Z,4.07
2018-10-21T00:14:17.137Z,4.07
2018-10-21T00:15:22.413Z,4.07
2018-10-21T00:16:28.512Z,4.07
2018-10-21T00:17:34.692Z,4.07
2018-10-21T00:18:40.893Z,4.07
2018-10-21T00:19:47.050Z,4.07
2018-10-21T00:20:53.285Z,4.07
2018-10-21T00:21:59.435Z,4.07
2018-10-21T00:23:05.624Z,4.07
2018-10-21T00:24:11.796Z,4.07
2018-10-21T00:25:17.971Z,4.07
2018-10-21T00:26:25.144Z,4.07
2018-10-21T00:27:30.352Z,4.07
2018-10-21T00:28:36.519Z,4.07
2018-10-21T00:29:42.698Z,4.07
2018-10-21T00:30:48.864Z,4.07
2018-10-21T00:31:55.062Z,4.06
2018-10-21T00:33:01.312Z,4.07
2018-10-21T00:34:07.401Z,4.07
2018-10-21T00:35:13.568Z,4.07
2018-10-21T00:36:19.732Z,4.07
2018-10-21T00:37:25.423Z,4.07
2018-10-21T00:38:32.094Z,4.07
2018-10-21T00:39:37.768Z,4.07
2018-10-21T00:40:44.435Z,4.07
2018-10-21T00:41:50.622Z,4.07
2018-10-21T00:42:56.785Z,4.06
2018-10-21T00:44:02.954Z,4.07
2018-10-21T00:45:09.158Z,4.06
2018-10-21T00:46:15.295Z,4.07
2018-10-21T00:47:21.466Z,4.07
2018-10-21T00:48:27.642Z,4.06
2018-10-21T00:49:33.813Z,4.07
2018-10-21T00:50:39.980Z,4.06
2018-10-21T00:51:46.134Z,4.07
2018-10-21T00:52:52.303Z,4.07
2018-10-21T00:53:58.470Z,4.07
2018-10-21T00:55:04.654Z,4.07
2018-10-21T00:56:10.794Z,4.06
2018-10-21T00:57:17.025Z,4.07
2018-10-21T00:58:23.113Z,4.07
2018-10-21T00:59:29.278Z,4.06
2018-10-21T01:00:35.424Z,4.06
2018-10-21T01:01:41.574Z,4.07
2018-10-21T01:02:47.729Z,4.07
2018-10-21T01:03:53.891Z,4.07
2018-10-21T01:05:00.034Z,4.06
2018-10-21T01:06:06.194Z,4.06
2018-10-21T01:07:15.281Z,4.07
2018-10-21T01:08:18.489Z,4.06
2018-10-21T01:09:24.629Z,4.07
2018-10-21T01:10:30.777Z,4.07
2018-10-21T01:11:36.933Z,4.06
2018-10-21T01:12:43.058Z,4.06
2018-10-21T01:13:49.216Z,4.06
2018-10-21T01:14:55.385Z,4.06
2018-10-21T01:16:01.493Z,4.07
2018-10-21T01:17:07.635Z,4.07
2018-10-21T01:18:13.774Z,4.07
2018-10-21T01:19:19.902Z,4.06
2018-10-21T01:20:26.031Z,4.07
2018-10-21T01:21:32.277Z,4.07
2018-10-21T01:22:38.320Z,4.06
2018-10-21T01:23:44.438Z,4.06
2018-10-21T01:24:50.569Z,4.07
2018-10-21T01:25:56.709Z,4.06
2018-10-21T01:27:02.887Z,4.06
2018-10-21T01:28:08.939Z,4.06
2018-10-21T01:29:15.069Z,4.07
2018-10-21T01:30:21.214Z,4.06
2018-10-21T01:31:27.330Z,4.06
2018-10-21T01:32:33.442Z,4.06
2018-10-21T01:33:39.580Z,4.06
2018-10-21T01:34:45.694Z,4.06
2018-10-21T01:35:51.823Z,4.06
2018-10-21T01:36:57.979Z,4.06
2018-10-21T01:38:04.085Z,4.06
2018-10-21T01:39:10.321Z,4.06
2018-10-21T01:40:16.299Z,4.06
2018-10-21T01:41:22.425Z,4.06
2018-10-21T01:42:28.536Z,4.06
2018-10-21T01:43:34.660Z,4.06
2018-10-21T01:44:40.774Z,4.06
2018-10-21T01:45:46.883Z,4.06
2018-10-21T01:46:52.991Z,4.06
2018-10-21T01:47:59.122Z,4.07
2018-10-21T01:49:05.230Z,4.06
2018-10-21T01:50:11.343Z,4.06
2018-10-21T01:51:17.526Z,4.06
2018-10-21T01:52:23.582Z,4.06
2018-10-21T01:53:29.670Z,4.06
2018-10-21T01:54:35.802Z,4.07
2018-10-21T01:55:41.896Z,4.06
2018-10-21T01:56:48.000Z,4.07
2018-10-21T01:57:54.112Z,4.06
2018-10-21T01:59:00.277Z,4.06
2018-10-21T02:00:06.309Z,4.06
2018-10-21T02:01:12.408Z,4.06
2018-10-21T02:02:18.529Z,4.06
2018-10-21T02:03:24.622Z,4.06
2018-10-21T02:04:30.733Z,4.06
2018-10-21T02:05:36.830Z,4.06
2018-10-21T02:06:42.933Z,4.06
2018-10-21T02:07:49.027Z,4.06
2018-10-21T02:08:55.144Z,4.06
2018-10-21T02:10:01.230Z,4.06
2018-10-21T02:11:07.329Z,4.06
2018-10-21T02:12:13.408Z,4.06
2018-10-21T02:13:19.511Z,4.06
2018-10-21T02:14:25.606Z,4.06
2018-10-21T02:15:31.710Z,4.06
2018-10-21T02:16:37.796Z,4.06
2018-10-21T02:17:43.875Z,4.06
2018-10-21T02:18:49.992Z,4.06
2018-10-21T02:19:56.062Z,4.06
2018-10-21T02:21:02.313Z,4.06
2018-10-21T02:22:08.255Z,4.06
2018-10-21T02:23:14.343Z,4.06
2018-10-21T02:24:20.432Z,4.06
2018-10-21T02:25:26.523Z,4.06
2018-10-21T02:26:32.682Z,4.06
2018-10-21T02:27:38.690Z,4.06
2018-10-21T02:28:44.769Z,4.06
2018-10-21T02:29:50.847Z,4.06
2018-10-21T02:30:56.947Z,4.06
2018-10-21T02:32:03.022Z,4.06
2018-10-21T02:33:09.245Z,4.06
2018-10-21T02:34:15.225Z,4.06
2018-10-21T02:35:21.276Z,4.06
2018-10-21T02:36:27.343Z,4.06
2018-10-21T02:37:34.428Z,4.06
2018-10-21T02:38:39.524Z,4.06
2018-10-21T02:39:45.593Z,4.06
2018-10-21T02:40:51.685Z,4.06
2018-10-21T02:41:57.747Z,4.06
2018-10-21T02:43:03.819Z,4.06
2018-10-21T02:44:09.900Z,4.06
2018-10-21T02:45:16.071Z,4.06
2018-10-21T02:46:22.066Z,4.06
2018-10-21T02:47:28.124Z,4.06
2018-10-21T02:48:34.273Z,4.06
2018-10-21T02:49:40.288Z,4.06
2018-10-21T02:50:46.365Z,4.06
2018-10-21T02:51:52.436Z,4.06
2018-10-21T02:52:58.519Z,4.06
2018-10-21T02:54:04.612Z,4.06
2018-10-21T02:55:10.679Z,4.06
2018-10-21T02:56:16.746Z,4.06
2018-10-21T02:57:22.836Z,4.06
2018-10-21T02:58:28.907Z,4.06
2018-10-21T02:59:34.997Z,4.06
2018-10-21T03:00:41.063Z,4.06
2018-10-21T03:01:47.162Z,4.06
2018-10-21T03:02:53.210Z,4.06
2018-10-21T03:03:59.311Z,4.06
2018-10-21T03:05:05.365Z,4.06
2018-10-21T03:06:11.457Z,4.06
2018-10-21T03:07:17.544Z,4.06
2018-10-21T03:08:23.612Z,4.06
2018-10-21T03:09:29.678Z,4.06
2018-10-21T03:10:35.748Z,4.06
2018-10-21T03:11:41.838Z,4.06
2018-10-21T03:12:47.914Z,4.06
2018-10-21T03:13:53.979Z,4.06
2018-10-21T03:15:00.065Z,4.06
2018-10-21T03:17:12.314Z,4.06
2018-10-21T03:18:19.319Z,4.06
2018-10-21T03:19:24.344Z,4.06
2018-10-21T03:20:30.395Z,4.06
2018-10-21T03:21:36.484Z,4.06
2018-10-21T03:22:42.559Z,4.06
2018-10-21T03:23:48.654Z,4.06
2018-10-21T03:24:54.679Z,4.06
2018-10-21T03:26:00.756Z,4.06
2018-10-21T03:27:06.894Z,4.06
2018-10-21T03:28:12.896Z,4.06
2018-10-21T03:29:18.951Z,4.06
2018-10-21T03:30:25.028Z,4.06
2018-10-21T03:31:31.095Z,4.06
2018-10-21T03:32:37.160Z,4.06
2018-10-21T03:33:43.381Z,4.06
2018-10-21T03:34:50.307Z,4.06
2018-10-21T03:35:55.372Z,4.06
2018-10-21T03:37:01.438Z,4.06
2018-10-21T03:38:07.499Z,4.06
2018-10-21T03:39:13.568Z,4.06
2018-10-21T03:40:19.671Z,4.06
2018-10-21T03:41:25.708Z,4.06
2018-10-21T03:42:31.786Z,4.06
2018-10-21T03:43:37.828Z,4.06
2018-10-21T03:44:43.909Z,4.06
2018-10-21T03:45:49.969Z,4.06
2018-10-21T03:46:56.044Z,4.06
2018-10-21T03:48:02.111Z,4.06
2018-10-21T03:49:08.177Z,4.06
2018-10-21T03:50:14.230Z,4.06
2018-10-21T03:51:20.298Z,4.06
2018-10-21T03:52:26.362Z,4.06
2018-10-21T03:53:32.439Z,4.06
2018-10-21T03:54:38.492Z,4.06
2018-10-21T03:55:44.567Z,4.06
2018-10-21T03:56:50.600Z,4.06
2018-10-21T03:57:56.683Z,4.06
2018-10-21T03:59:02.739Z,4.06
2018-10-21T04:00:08.789Z,4.06
2018-10-21T04:01:14.879Z,4.06
2018-10-21T04:02:20.919Z,4.06
2018-10-21T04:03:26.979Z,4.06
2018-10-21T04:04:33.046Z,4.06
2018-10-21T04:05:39.103Z,4.06
2018-10-21T04:06:45.285Z,4.06
2018-10-21T04:07:51.294Z,4.06
2018-10-21T04:08:57.303Z,4.06
2018-10-21T04:10:03.423Z,4.06
2018-10-21T04:11:09.418Z,4.06
2018-10-21T04:12:15.469Z,4.06
2018-10-21T04:13:21.533Z,4.06
2018-10-21T04:14:27.592Z,4.06
2018-10-21T04:15:33.654Z,4.06
2018-10-21T04:16:39.702Z,4.06
2018-10-21T04:17:45.755Z,4.06
2018-10-21T04:18:51.815Z,4.06
2018-10-21T04:19:57.877Z,4.06
2018-10-21T04:21:03.925Z,4.06
2018-10-21T04:22:10.031Z,4.06
2018-10-21T04:23:16.061Z,4.06
2018-10-21T04:24:22.099Z,4.06
2018-10-21T04:25:28.154Z,4.06
2018-10-21T04:26:34.203Z,4.06
2018-10-21T04:27:40.260Z,4.06
2018-10-21T04:28:46.319Z,4.06
2018-10-21T04:29:52.666Z,4.06
2018-10-21T04:30:58.444Z,4.06
2018-10-21T04:32:04.477Z,4.06
2018-10-21T04:33:10.533Z,4.06
2018-10-21T04:34:16.673Z,4.06
2018-10-21T04:35:22.660Z,4.06
2018-10-21T04:36:28.694Z,4.06
2018-10-21T04:37:34.737Z,4.06
2018-10-21T04:38:40.786Z,4.06
2018-10-21T04:39:46.838Z,4.06
2018-10-21T04:40:52.887Z,4.06
2018-10-21T04:41:58.925Z,4.06
2018-10-21T04:43:04.488Z,4.06
2018-10-21T04:44:11.045Z,4.06
2018-10-21T04:45:17.078Z,4.06
2018-10-21T04:46:23.212Z,4.06
2018-10-21T04:47:29.276Z,4.06
2018-10-21T04:48:35.297Z,4.06
2018-10-21T04:49:41.279Z,4.06
2018-10-21T04:50:47.334Z,4.06
2018-10-21T04:51:53.435Z,4.06
2018-10-21T04:52:58.941Z,4.06
2018-10-21T04:54:05.470Z,4.06
2018-10-21T04:55:11.526Z,4.06
2018-10-21T04:56:17.559Z,4.06
2018-10-21T04:57:23.620Z,4.06
2018-10-21T04:58:29.672Z,4.06
2018-10-21T04:59:35.713Z,4.06
2018-10-21T05:00:41.837Z,4.06
2018-10-21T05:01:47.806Z,4.06
2018-10-21T05:02:53.861Z,4.06
2018-10-21T05:03:59.924Z,4.06
2018-10-21T05:05:05.949Z,4.06
2018-10-21T05:06:11.986Z,4.06
2018-10-21T05:07:18.084Z,4.06
2018-10-21T05:08:24.096Z,4.06
2018-10-21T05:09:30.142Z,4.06
2018-10-21T05:10:36.288Z,4.06
2018-10-21T05:11:42.285Z,4.06
2018-10-21T05:12:48.289Z,4.06
2018-10-21T05:13:54.341Z,4.06
2018-10-21T05:15:00.406Z,4.06
2018-10-21T05:16:06.473Z,4.06
2018-10-21T05:17:12.486Z,4.06
2018-10-21T05:18:18.527Z,4.06
2018-10-21T05:19:24.590Z,4.06
2018-10-21T05:20:30.642Z,4.06
2018-10-21T05:21:36.688Z,4.06
2018-10-21T05:22:42.729Z,4.06
2018-10-21T05:23:48.817Z,4.06
2018-10-21T05:24:54.826Z,4.06
2018-10-21T05:26:00.867Z,4.06
2018-10-21T05:27:06.915Z,4.06
2018-10-21T05:28:13.041Z,4.05
2018-10-21T05:29:19.087Z,4.06
2018-10-21T05:30:25.074Z,4.06
2018-10-21T05:31:31.123Z,4.06
2018-10-21T05:32:37.293Z,4.06
2018-10-21T05:33:43.279Z,4.06
2018-10-21T05:34:49.292Z,4.06
2018-10-21T05:35:55.319Z,4.06
2018-10-21T05:37:01.352Z,4.05
2018-10-21T05:38:07.401Z,4.06
2018-10-21T05:39:13.468Z,4.06
2018-10-21T05:40:19.501Z,4.06
2018-10-21T05:41:25.562Z,4.06
2018-10-21T05:42:31.609Z,4.06
2018-10-21T05:43:37.660Z,4.06
2018-10-21T05:44:43.707Z,4.06
2018-10-21T05:45:49.767Z,4.06
2018-10-21T05:46:55.811Z,4.05
2018-10-21T05:48:01.840Z,4.06
2018-10-21T05:49:07.891Z,4.06
2018-10-21T05:50:13.933Z,4.06
2018-10-21T05:51:20.292Z,4.06
2018-10-21T05:52:26.029Z,4.06
2018-10-21T05:53:32.097Z,4.06
2018-10-21T05:54:38.122Z,4.06
2018-10-21T05:55:44.294Z,4.06
2018-10-21T05:56:50.289Z,4.05
2018-10-21T05:57:56.295Z,4.06
2018-10-21T05:59:02.339Z,4.06
2018-10-21T06:00:08.364Z,4.06
2018-10-21T06:01:14.402Z,4.05
2018-10-21T06:02:20.448Z,4.05
2018-10-21T06:03:26.506Z,4.06
2018-10-21T06:04:32.553Z,4.06
2018-10-21T06:05:38.596Z,4.06
2018-10-21T06:06:44.637Z,4.06
2018-10-21T06:07:50.753Z,4.06
2018-10-21T06:08:57.205Z,4.06
2018-10-21T06:10:02.865Z,4.06
2018-10-21T06:11:08.844Z,4.06
2018-10-21T06:12:14.883Z,4.06
2018-10-21T06:13:20.938Z,4.06
2018-10-21T06:15:33.040Z,4.06
2018-10-21T06:16:39.078Z,4.06
2018-10-21T06:17:45.127Z,4.06
2018-10-21T06:18:51.497Z,4.06
2018-10-21T06:19:57.347Z,4.06
2018-10-21T06:21:03.291Z,4.06
2018-10-21T06:22:09.374Z,4.06
2018-10-21T06:23:15.375Z,4.06
2018-10-21T06:24:21.427Z,4.06
2018-10-21T06:25:27.485Z,4.06
2018-10-21T06:26:33.534Z,4.06
2018-10-21T06:27:39.623Z,4.06
2018-10-21T06:28:45.649Z,4.06
2018-10-21T06:29:51.711Z,4.06
2018-10-21T06:30:57.753Z,4.06
2018-10-21T06:32:03.810Z,4.06
2018-10-21T06:33:09.906Z,4.06
2018-10-21T06:34:15.913Z,4.06
2018-10-21T06:35:21.968Z,4.06
2018-10-21T06:36:28.057Z,4.06
2018-10-21T06:37:34.087Z,4.06
2018-10-21T06:38:40.152Z,4.06
2018-10-21T06:39:46.286Z,4.06
2018-10-21T06:40:53.265Z,4.06
2018-10-21T06:41:58.345Z,4.06
2018-10-21T06:43:03.888Z,4.06
2018-10-21T06:44:10.466Z,4.06
2018-10-21T06:45:16.628Z,4.06
2018-10-21T06:46:22.580Z,4.06
2018-10-21T06:47:29.272Z,4.06
2018-10-21T06:48:34.764Z,4.06
2018-10-21T06:49:40.762Z,4.06
2018-10-21T06:50:46.829Z,4.06
2018-10-21T06:51:52.889Z,4.06
2018-10-21T06:52:58.946Z,4.06
2018-10-21T06:54:05.015Z,4.06
2018-10-21T06:55:10.579Z,4.06
2018-10-21T06:56:16.700Z,4.06
2018-10-21T06:57:23.393Z,4.06
2018-10-21T06:58:29.281Z,4.06
2018-10-21T06:59:37.299Z,4.06
2018-10-21T07:00:41.410Z,4.06
2018-10-21T07:01:47.487Z,4.06
2018-10-21T07:02:53.561Z,4.06
2018-10-21T07:03:59.629Z,4.06
2018-10-21T07:05:05.706Z,4.06
2018-10-21T07:06:11.764Z,4.06
2018-10-21T07:07:17.816Z,4.06
2018-10-21T07:08:24.894Z,4.06
2018-10-21T07:09:29.975Z,4.06
2018-10-21T07:10:36.046Z,4.06
2018-10-21T07:11:42.117Z,4.06
2018-10-21T07:12:48.287Z,4.06
2018-10-21T07:13:54.328Z,4.06
2018-10-21T07:15:00.342Z,4.06
2018-10-21T07:16:06.441Z,4.06
2018-10-21T07:17:12.969Z,4.06
2018-10-21T07:18:18.648Z,4.06
2018-10-21T07:19:24.656Z,4.06
2018-10-21T07:20:30.747Z,4.06
2018-10-21T07:21:36.841Z,4.06
2018-10-21T07:22:42.925Z,4.06
2018-10-21T07:23:49.008Z,4.06
2018-10-21T07:24:55.116Z,4.06
2018-10-21T07:26:01.190Z,4.06
2018-10-21T07:27:07.278Z,4.06
2018-10-21T07:28:13.506Z,4.06
2018-10-21T07:29:19.470Z,4.06
2018-10-21T07:30:25.580Z,4.06
2018-10-21T07:31:31.666Z,4.06
2018-10-21T07:32:37.774Z,4.06
2018-10-21T07:33:43.855Z,4.06
2018-10-21T07:34:49.982Z,4.06
2018-10-21T07:35:56.066Z,4.06
2018-10-21T07:37:02.322Z,4.06
2018-10-21T07:38:08.285Z,4.06
2018-10-21T07:39:14.389Z,4.06
2018-10-21T07:40:20.506Z,4.06
2018-10-21T07:41:26.127Z,4.06
2018-10-21T07:42:32.734Z,4.06
2018-10-21T07:43:38.836Z,4.06
2018-10-21T07:44:44.953Z,4.06
2018-10-21T07:45:51.077Z,4.06
2018-10-21T07:46:57.196Z,4.06
2018-10-21T07:48:02.824Z,4.06
2018-10-21T07:49:09.556Z,4.06
2018-10-21T07:50:15.560Z,4.06
2018-10-21T07:51:21.679Z,4.06
2018-10-21T07:52:27.828Z,4.06
2018-10-21T07:53:33.951Z,4.06
2018-10-21T07:54:40.079Z,4.06
2018-10-21T07:55:46.293Z,4.06
2018-10-21T07:56:52.331Z,4.06
2018-10-21T07:57:58.502Z,4.06
2018-10-21T07:59:04.698Z,4.06
2018-10-21T08:00:10.735Z,4.06
2018-10-21T08:01:16.879Z,4.06
2018-10-21T08:02:23.043Z,4.06
2018-10-21T08:03:29.203Z,4.06
2018-10-21T08:04:35.388Z,4.06
2018-10-21T08:05:41.698Z,4.06
2018-10-21T08:06:47.586Z,4.06
2018-10-21T08:07:53.807Z,4.06
2018-10-21T08:09:00.027Z,4.06
2018-10-21T08:10:06.218Z,4.06
2018-10-21T08:11:11.799Z,4.06
2018-10-21T08:12:18.484Z,4.06
2018-10-21T08:13:24.643Z,4.06
2018-10-21T08:14:30.706Z,4.06
2018-10-21T08:15:36.772Z,4.06
2018-10-21T08:16:42.436Z,4.06
2018-10-21T08:17:49.095Z,4.06
2018-10-21T08:18:55.509Z,4.07
2018-10-21T08:20:01.389Z,4.06
2018-10-21T08:21:07.089Z,4.06
2018-10-21T08:22:13.857Z,4.06
2018-10-21T08:23:19.398Z,4.06
2018-10-21T08:24:25.598Z,4.06
2018-10-21T08:25:31.732Z,4.06
2018-10-21T08:26:38.433Z,4.07
2018-10-21T08:27:44.584Z,4.08
2018-10-21T08:28:50.779Z,4.09
2018-10-21T08:29:56.903Z,4.10
2018-10-21T08:31:03.178Z,4.10
2018-10-21T08:32:09.414Z,4.11
2018-10-21T08:33:14.945Z,4.11
2018-10-21T08:34:21.241Z,4.11
2018-10-21T08:35:27.794Z,4.12
2018-10-21T08:37:40.307Z,4.12
2018-10-21T08:38:47.899Z,4.12
2018-10-21T08:39:53.273Z,4.12
2018-10-21T08:40:58.247Z,4.12
2018-10-21T08:42:04.987Z,4.12
2018-10-21T08:44:17.293Z,4.10
2018-10-21T08:45:22.982Z,4.10
2018-10-21T08:46:29.735Z,4.09
2018-10-21T08:47:35.880Z,4.09
2018-10-21T08:48:42.077Z,4.09
2018-10-21T08:49:48.311Z,4.09
2018-10-21T08:50:54.479Z,4.09
2018-10-21T08:52:00.744Z,4.09
2018-10-21T08:53:06.936Z,4.09
2018-10-21T08:54:13.111Z,4.09
2018-10-21T08:55:19.651Z,4.09
2018-10-21T08:56:25.574Z,4.09
2018-10-21T08:57:31.792Z,4.09
2018-10-21T08:58:37.522Z,4.09
2018-10-21T08:59:44.295Z,4.09
2018-10-21T09:00:50.162Z,4.09
2018-10-21T09:01:56.361Z,4.09
2018-10-21T09:03:02.433Z,4.09
2018-10-21T09:04:09.205Z,4.09
2018-10-21T09:05:15.398Z,4.09
2018-10-21T09:06:21.628Z,4.09
2018-10-21T09:07:27.868Z,4.09
2018-10-21T09:08:34.111Z,4.09
2018-10-21T09:09:40.356Z,4.09
2018-10-21T09:10:46.766Z,4.09
2018-10-21T09:11:53.330Z,4.09
2018-10-21T09:12:59.130Z,4.08
2018-10-21T09:14:04.810Z,4.09
2018-10-21T09:15:11.631Z,4.08
2018-10-21T09:16:17.889Z,4.09
2018-10-21T09:17:24.009Z,4.09
2018-10-21T09:18:29.765Z,4.08
2018-10-21T09:19:36.487Z,4.09
2018-10-21T09:20:42.746Z,4.09
2018-10-21T09:21:48.973Z,4.08
2018-10-21T09:22:55.199Z,4.09
2018-10-21T09:24:01.436Z,4.08
2018-10-21T09:25:07.223Z,4.09
2018-10-21T09:26:13.933Z,4.08
2018-10-21T09:27:20.310Z,4.09
2018-10-21T09:28:26.414Z,4.08
2018-10-21T09:29:32.154Z,4.08
2018-10-21T09:30:38.901Z,4.08
2018-10-21T09:31:45.154Z,4.08
2018-10-21T09:32:51.399Z,4.09
2018-10-21T09:33:57.633Z,4.09
2018-10-21T09:35:03.892Z,4.09
2018-10-21T09:36:10.137Z,4.09
2018-10-21T09:37:16.492Z,4.09
2018-10-21T09:38:22.148Z,4.09
2018-10-21T09:39:28.892Z,4.10
2018-10-21T09:40:35.143Z,4.12
2018-10-21T09:41:40.911Z,4.12
2018-10-21T09:42:47.665Z,4.10
2018-10-21T09:43:53.921Z,4.10
2018-10-21T09:44:59.702Z,4.09
2018-10-21T09:46:06.542Z,4.10
2018-10-21T09:47:12.723Z,4.09
2018-10-21T09:48:18.989Z,4.09
2018-10-21T09:49:25.262Z,4.09
2018-10-21T09:50:31.550Z,4.09
2018-10-21T09:51:37.844Z,4.09
2018-10-21T09:52:44.130Z,4.10
2018-10-21T09:53:50.395Z,4.10
2018-10-21T09:54:56.760Z,4.09
2018-10-21T09:56:02.989Z,4.10
2018-10-21T09:57:08.782Z,4.10
2018-10-21T09:58:15.714Z,4.10
2018-10-21T09:59:21.871Z,4.10
2018-10-21T10:00:28.292Z,4.10
2018-10-21T10:01:33.970Z,4.10
2018-10-21T10:02:40.786Z,4.10
2018-10-21T10:03:47.122Z,4.10
2018-10-21T10:04:53.396Z,4.10
2018-10-21T10:05:59.700Z,4.10
2018-10-21T10:07:06.039Z,4.10
2018-10-21T10:08:11.838Z,4.10
2018-10-21T10:09:18.636Z,4.10
2018-10-21T10:10:24.952Z,4.10
2018-10-21T10:11:31.269Z,4.10
2018-10-21T10:12:37.586Z,4.10
2018-10-21T10:13:43.414Z,4.10
2018-10-21T10:14:50.290Z,4.10
2018-10-21T10:15:56.569Z,4.10
2018-10-21T10:17:02.375Z,4.10
2018-10-21T10:18:09.199Z,4.10
2018-10-21T10:19:15.617Z,4.10
2018-10-21T10:20:21.850Z,4.10
2018-10-21T10:21:28.279Z,4.10
2018-10-21T10:22:34.011Z,4.10
2018-10-21T10:23:40.345Z,4.10
2018-10-21T10:24:46.677Z,4.10
2018-10-21T10:25:53.500Z,4.10
2018-10-21T10:26:59.831Z,4.10
2018-10-21T10:28:06.362Z,4.10
2018-10-21T10:29:12.498Z,4.10
2018-10-21T10:30:18.898Z,4.10
2018-10-21T10:31:25.189Z,4.10
2018-10-21T10:32:31.521Z,4.10
2018-10-21T10:33:37.885Z,4.10
2018-10-21T10:34:44.306Z,4.10
2018-10-21T10:35:50.567Z,4.10
2018-10-21T10:36:56.456Z,4.10
2018-10-21T10:38:03.263Z,4.10
2018-10-21T10:39:09.625Z,4.10
2018-10-21T10:40:15.526Z,4.10
2018-10-21T10:41:22.330Z,4.10
2018-10-21T10:42:28.680Z,4.10
2018-10-21T10:43:35.041Z,4.10
2018-10-21T10:44:40.885Z,4.10
2018-10-21T10:45:47.728Z,4.10
2018-10-21T10:46:54.113Z,4.10
2018-10-21T10:48:00.469Z,4.10
2018-10-21T10:49:06.841Z,4.10
2018-10-21T10:50:13.176Z,4.10
2018-10-21T10:51:19.539Z,4.10
2018-10-21T10:52:25.906Z,4.10
2018-10-21T10:53:32.285Z,4.10
2018-10-21T10:54:38.644Z,4.10
2018-10-21T10:55:45.021Z,4.10
2018-10-21T10:56:51.389Z,4.10
2018-10-21T10:57:57.816Z,4.10
2018-10-21T10:59:04.136Z,4.10
2018-10-21T11:00:10.530Z,4.10
2018-10-21T11:01:16.931Z,4.10
2018-10-21T11:02:23.250Z,4.10
2018-10-21T11:03:29.628Z,4.10
2018-10-21T11:04:35.512Z,4.10
2018-10-21T11:05:42.389Z,4.10
2018-10-21T11:06:48.765Z,4.10
2018-10-21T11:07:55.158Z,4.10
2018-10-21T11:09:01.541Z,4.10
2018-10-21T11:10:07.960Z,4.10
2018-10-21T11:11:14.301Z,4.10
2018-10-21T11:12:20.708Z,4.10
2018-10-21T11:13:27.119Z,4.10
2018-10-21T11:14:33.603Z,4.10
2018-10-21T11:15:39.496Z,4.10
2018-10-21T11:16:45.967Z,4.10
2018-10-21T11:17:52.926Z,4.10
2018-10-21T11:18:59.471Z,4.10
2018-10-21T11:20:05.489Z,4.10
2018-10-21T11:21:12.475Z,4.10
2018-10-21T11:22:19.117Z,4.10
2018-10-21T11:23:25.111Z,4.10
2018-10-21T11:24:31.707Z,4.10
2018-10-21T11:25:38.809Z,4.10
2018-10-21T11:26:45.426Z,4.10
2018-10-21T11:27:52.060Z,4.10
2018-10-21T11:28:58.719Z,4.10
2018-10-21T11:30:05.396Z,4.10
2018-10-21T11:31:12.183Z,4.10
2018-10-21T11:32:18.764Z,4.10
2018-10-21T11:33:25.493Z,4.10
2018-10-21T11:34:31.719Z,4.10
2018-10-21T11:35:38.930Z,4.10
2018-10-21T11:36:45.184Z,4.10
2018-10-21T11:37:51.916Z,4.10
2018-10-21T11:38:59.285Z,4.10
2018-10-21T11:40:06.022Z,4.09
2018-10-21T11:41:12.237Z,4.09
2018-10-21T11:42:19.524Z,4.09
2018-10-21T11:43:26.335Z,4.09
2018-10-21T11:44:33.857Z,4.10
2018-10-21T11:45:39.565Z,4.09
2018-10-21T11:46:46.789Z,4.09
2018-10-21T11:47:54.130Z,4.09
2018-10-21T11:49:00.487Z,4.10
2018-10-21T11:50:07.310Z,4.09
2018-10-21T11:51:14.167Z,4.09
2018-10-21T11:52:21.127Z,4.09
2018-10-21T11:53:27.886Z,4.09
2018-10-21T11:54:34.260Z,4.09
2018-10-21T11:55:41.647Z,4.09
2018-10-21T11:56:48.519Z,4.09
2018-10-21T11:57:55.419Z,4.09
2018-10-21T11:59:01.844Z,4.09
2018-10-21T12:00:09.313Z,4.09
2018-10-21T12:01:16.138Z,4.09
2018-10-21T12:02:22.709Z,4.09
2018-10-21T12:03:29.424Z,4.09
2018-10-21T12:04:36.348Z,4.09
2018-10-21T12:05:43.257Z,4.09
2018-10-21T12:06:50.679Z,4.09
2018-10-21T12:07:57.602Z,4.09
2018-10-21T12:09:05.034Z,4.09
2018-10-21T12:10:12.475Z,4.09
2018-10-21T12:11:17.908Z,4.09
2018-10-21T12:12:25.341Z,4.09
2018-10-21T12:13:32.284Z,4.09
2018-10-21T12:14:38.715Z,4.09
2018-10-21T12:15:46.166Z,4.09
2018-10-21T12:16:52.595Z,4.09
2018-10-21T12:17:59.587Z,4.09
2018-10-21T12:19:07.063Z,4.09
2018-10-21T12:20:13.932Z,4.09
2018-10-21T12:21:20.389Z,4.09
2018-10-21T12:22:27.868Z,4.09
2018-10-21T12:23:34.848Z,4.09
2018-10-21T12:24:41.746Z,4.09
2018-10-21T12:25:48.737Z,4.09
2018-10-21T12:26:55.723Z,4.09
2018-10-21T12:28:02.212Z,4.09
2018-10-21T12:29:09.206Z,4.09
2018-10-21T12:30:16.559Z,4.09
2018-10-21T12:31:23.034Z,4.09
2018-10-21T12:32:29.982Z,4.09
2018-10-21T12:33:37.807Z,4.09
2018-10-21T12:34:44.473Z,4.09
2018-10-21T12:35:50.914Z,4.09
2018-10-21T12:36:57.917Z,4.09
2018-10-21T12:38:06.293Z,4.09
2018-10-21T12:39:12.324Z,4.09
2018-10-21T12:40:18.854Z,4.09
2018-10-21T12:41:25.939Z,4.09
2018-10-21T12:42:33.505Z,4.09
2018-10-21T12:43:40.218Z,4.09
2018-10-21T12:44:46.701Z,4.09
2018-10-21T12:45:53.704Z,4.09
2018-10-21T12:47:01.163Z,4.09
2018-10-21T12:48:09.123Z,4.09
2018-10-21T12:49:14.645Z,4.09
2018-10-21T12:50:22.116Z,4.09
2018-10-21T12:51:28.680Z,4.09
2018-10-21T12:52:36.101Z,4.09
2018-10-21T12:53:42.696Z,4.09
2018-10-21T12:54:51.276Z,4.09
2018-10-21T12:55:56.695Z,4.09
2018-10-21T12:57:04.203Z,4.09
2018-10-21T12:58:11.366Z,4.09
2018-10-21T12:59:18.301Z,4.08
2018-10-21T13:00:24.865Z,4.09
2018-10-21T13:01:32.412Z,4.09
2018-10-21T13:02:39.182Z,4.09
2018-10-21T13:03:46.559Z,4.09
2018-10-21T13:04:53.654Z,4.08
2018-10-21T13:06:00.223Z,4.09
2018-10-21T13:07:07.317Z,4.08
2018-10-21T13:08:14.408Z,4.09
2018-10-21T13:09:22.135Z,4.08
2018-10-21T13:10:29.612Z,4.08
2018-10-21T13:11:35.684Z,4.09
2018-10-21T13:12:43.354Z,4.08
2018-10-21T13:13:50.388Z,4.08
2018-10-21T13:14:57.491Z,4.08
2018-10-21T13:16:04.625Z,4.08
2018-10-21T13:17:11.703Z,4.08
2018-10-21T13:18:18.309Z,4.08
2018-10-21T13:19:25.910Z,4.08
2018-10-21T13:20:33.036Z,4.08
2018-10-21T13:21:40.114Z,4.09
2018-10-21T13:22:47.281Z,4.08
2018-10-21T13:23:54.315Z,4.08
2018-10-21T13:25:01.441Z,4.08
2018-10-21T13:26:08.016Z,4.08
2018-10-21T13:27:15.076Z,4.08
2018-10-21T13:28:22.779Z,4.08
2018-10-21T13:29:29.743Z,4.08
2018-10-21T13:30:37.006Z,4.08
2018-10-21T13:31:43.422Z,4.08
2018-10-21T13:32:51.066Z,4.08
2018-10-21T13:33:58.407Z,4.08
2018-10-21T13:35:05.254Z,4.08
2018-10-21T13:36:11.792Z,4.08
2018-10-21T13:37:19.288Z,4.08
2018-10-21T13:38:27.479Z,4.08
2018-10-21T13:39:33.431Z,4.08
2018-10-21T13:40:40.555Z,4.08
2018-10-21T13:41:47.004Z,4.08
2018-10-21T13:42:54.545Z,4.08
2018-10-21T13:44:01.571Z,4.08
2018-10-21T13:45:08.616Z,4.08
2018-10-21T13:46:15.745Z,4.08
2018-10-21T13:47:22.800Z,4.08
2018-10-21T13:48:29.801Z,4.08
2018-10-21T13:49:37.059Z,4.08
2018-10-21T13:50:45.114Z,4.08
2018-10-21T13:51:50.877Z,4.08
2018-10-21T13:52:57.316Z,4.08
2018-10-21T13:54:04.755Z,4.09
2018-10-21T13:55:11.932Z,4.08
2018-10-21T13:56:19.286Z,4.08
2018-10-21T13:57:26.322Z,4.08
2018-10-21T13:58:33.390Z,4.08
2018-10-21T13:59:39.716Z,4.08
2018-10-21T14:00:47.152Z,4.08
2018-10-21T14:01:53.710Z,4.08
2018-10-21T14:03:00.797Z,4.08
2018-10-21T14:04:10.622Z,4.08
2018-10-21T14:05:14.525Z,4.08
2018-10-21T14:06:22.557Z,4.08
2018-10-21T14:07:28.164Z,4.08
2018-10-21T14:08:35.542Z,4.08
2018-10-21T14:09:42.017Z,4.08
2018-10-21T14:10:49.483Z,4.08
2018-10-21T14:11:55.954Z,4.08
2018-10-21T14:13:03.465Z,4.08
2018-10-21T14:14:10.415Z,4.08
2018-10-21T14:15:16.891Z,4.08
2018-10-21T14:16:23.915Z,4.08
2018-10-21T14:17:32.246Z,4.08
2018-10-21T14:18:38.316Z,4.08
2018-10-21T14:19:45.160Z,4.08
2018-10-21T14:20:51.614Z,4.08
2018-10-21T14:21:59.061Z,4.08
2018-10-21T14:23:06.011Z,4.08
2018-10-21T14:24:12.534Z,4.08
2018-10-21T14:25:19.401Z,4.08
2018-10-21T14:26:26.834Z,4.08
2018-10-21T14:27:33.819Z,4.08
2018-10-21T14:28:40.714Z,4.08
2018-10-21T14:29:47.639Z,4.08
2018-10-21T14:30:54.632Z,4.08
2018-10-21T14:32:01.509Z,4.08
2018-10-21T14:33:08.462Z,4.08
2018-10-21T14:34:15.360Z,4.08
2018-10-21T14:35:22.312Z,4.08
2018-10-21T14:36:29.218Z,4.08
2018-10-21T14:37:36.192Z,4.08
2018-10-21T14:38:42.552Z,4.08
2018-10-21T14:39:49.967Z,4.08
2018-10-21T14:40:56.906Z,4.08
2018-10-21T14:42:03.832Z,4.08
2018-10-21T14:43:10.731Z,4.08
2018-10-21T14:44:18.605Z,4.08
2018-10-21T14:45:24.108Z,4.08
2018-10-21T14:46:31.542Z,4.08
2018-10-21T14:47:38.372Z,4.08